Overview Statistics Trail Chart Weather Telemetry Raw packets
 

This is the latest recevied weather packets stored in our database for station/object W5CDN. If no packets are shown the sender has not sent any weather packets the latest 10 day(s).

<< 1 2 3 4 5 6 >>
Time Temp. Humidity Pressure Rain* Wind** Luminosity Snow
1788627202 32.78° C 60% 1013.3 hPa 0 mm - - -
1788627142 32.78° C 63% 1013.5 hPa 0 mm - - -
1788626668 32.78° C 60% 1013.4 hPa 0 mm - - -
1788626368 32.22° C 63% 1013.6 hPa 0 mm - - -
1788626068 31.11° C 66% 1013.9 hPa 0 mm - - -
1788625768 31.11° C 68% 1013.7 hPa 0 mm - - -
1788625468 31.11° C 67% 1013.9 hPa 0 mm - - -
1788625228 30.56° C 70% 1014 hPa 0 mm - - -
1788624988 30.56° C 67% 1013.9 hPa 0 mm - - -
1788624748 31.11° C 66% 1013.9 hPa 0 mm - - -
1788624508 30.56° C 70% 1014.1 hPa 0 mm - - -
1788624388 30° C 72% 1013.9 hPa 0 mm - - -
1788624268 30° C 71% 1014.1 hPa 0 mm - - -
1788624148 29.44° C 73% 1014.1 hPa 0 mm - - -
1788624028 29.44° C 73% 1014.2 hPa 0 mm - - -
1788623968 30° C 75% 1013.9 hPa 0 mm - - -
1788623908 29.44° C 73% 1014.2 hPa 0 mm - - -
1788623848 29.44° C 72% 1014.1 hPa 0 mm - - -
1788416336 23.89° C 99% 1013.7 hPa 2.29 mm - - -
1788416036 23.89° C 99% 1013.8 hPa 1.78 mm - - -
1788415736 23.89° C 99% 1013.8 hPa 1.27 mm - - -
1788415436 23.89° C 99% 1013.9 hPa 0.76 mm - - -
1788415136 24.44° C 99% 1013.8 hPa 0.76 mm - - -
1788414836 24.44° C 99% 1013.5 hPa 0.51 mm - - -
1788414558 24.44° C 99% 1013.5 hPa 0 mm - - -

* Rain latest hour (hover to see other rain measurements)
** Current wind speed in m/s (hover to see current wind gust speed)